Aviation Digital Data Service (ADDS)

Output produced by METARs form (0928 UTC 19 April 2015)
found at http://aviationweather.gov/adds/metars/
 
KEKN 190850Z 1909/2006 VRB03KT P6SM BKN150 
     FM191300 14007KT P6SM BKN070 
     FM191600 16010G16KT P6SM BKN060 
     FM192000 14012G19KT P6SM -SHRA OVC035 
     FM200500 16007KT 4SM -SHRA BR OVC035